sensor_id;sensor_type;location;lat;lon;timestamp;P1;durP1;ratioP1;P2;durP2;ratioP2
29984;SDS011;17387;42.690;23.328;2023-11-21T00:00:01;30.77;;;15.73;;
29984;SDS011;17387;42.690;23.328;2023-11-21T00:02:26;33.58;;;16.90;;
29984;SDS011;17387;42.690;23.328;2023-11-21T00:04:52;30.13;;;16.13;;
29984;SDS011;17387;42.690;23.328;2023-11-21T00:07:17;30.25;;;15.95;;
29984;SDS011;17387;42.690;23.328;2023-11-21T00:09:42;34.70;;;17.13;;
29984;SDS011;17387;42.690;23.328;2023-11-21T00:12:08;38.80;;;18.42;;
29984;SDS011;17387;42.690;23.328;2023-11-21T00:14:36;34.10;;;17.77;;
29984;SDS011;17387;42.690;23.328;2023-11-21T00:17:03;35.08;;;18.50;;
29984;SDS011;17387;42.690;23.328;2023-11-21T00:19:28;35.45;;;19.27;;
29984;SDS011;17387;42.690;23.328;2023-11-21T00:21:53;33.92;;;18.52;;
29984;SDS011;17387;42.690;23.328;2023-11-21T00:24:19;35.47;;;19.77;;
29984;SDS011;17387;42.690;23.328;2023-11-21T00:26:44;39.17;;;20.13;;
29984;SDS011;17387;42.690;23.328;2023-11-21T00:29:09;35.65;;;19.48;;
29984;SDS011;17387;42.690;23.328;2023-11-21T00:31:35;35.63;;;19.38;;
29984;SDS011;17387;42.690;23.328;2023-11-21T00:34:02;32.38;;;17.88;;
29984;SDS011;17387;42.690;23.328;2023-11-21T00:36:28;37.00;;;18.55;;
29984;SDS011;17387;42.690;23.328;2023-11-21T00:38:53;36.95;;;18.48;;
29984;SDS011;17387;42.690;23.328;2023-11-21T00:41:20;33.92;;;18.48;;
29984;SDS011;17387;42.690;23.328;2023-11-21T00:43:46;37.80;;;19.33;;
29984;SDS011;17387;42.690;23.328;2023-11-21T00:46:11;32.65;;;18.35;;
29984;SDS011;17387;42.690;23.328;2023-11-21T00:48:36;36.00;;;20.05;;
29984;SDS011;17387;42.690;23.328;2023-11-21T00:51:01;38.90;;;19.20;;
29984;SDS011;17387;42.690;23.328;2023-11-21T00:53:27;39.85;;;19.20;;
29984;SDS011;17387;42.690;23.328;2023-11-21T00:55:52;33.97;;;18.58;;
29984;SDS011;17387;42.690;23.328;2023-11-21T00:58:22;39.97;;;21.10;;
29984;SDS011;17387;42.690;23.328;2023-11-21T01:00:47;41.03;;;20.55;;
29984;SDS011;17387;42.690;23.328;2023-11-21T01:03:13;39.55;;;20.42;;
29984;SDS011;17387;42.690;23.328;2023-11-21T01:05:38;44.70;;;21.63;;
29984;SDS011;17387;42.690;23.328;2023-11-21T01:08:04;40.33;;;21.85;;
29984;SDS011;17387;42.690;23.328;2023-11-21T01:10:30;38.53;;;21.08;;
29984;SDS011;17387;42.690;23.328;2023-11-21T01:12:55;42.45;;;23.23;;
29984;SDS011;17387;42.690;23.328;2023-11-21T01:15:21;45.45;;;23.95;;
29984;SDS011;17387;42.690;23.328;2023-11-21T01:17:47;49.72;;;25.85;;
29984;SDS011;17387;42.690;23.328;2023-11-21T01:20:12;51.03;;;26.17;;
29984;SDS011;17387;42.690;23.328;2023-11-21T01:22:38;46.25;;;26.15;;
29984;SDS011;17387;42.690;23.328;2023-11-21T01:25:03;48.17;;;26.67;;
29984;SDS011;17387;42.690;23.328;2023-11-21T01:27:35;50.15;;;27.80;;
29984;SDS011;17387;42.690;23.328;2023-11-21T01:30:03;50.92;;;26.75;;
29984;SDS011;17387;42.690;23.328;2023-11-21T01:32:29;58.03;;;27.73;;
29984;SDS011;17387;42.690;23.328;2023-11-21T01:34:55;50.65;;;26.02;;
29984;SDS011;17387;42.690;23.328;2023-11-21T01:37:20;57.10;;;28.40;;
29984;SDS011;17387;42.690;23.328;2023-11-21T01:39:46;59.38;;;29.33;;
29984;SDS011;17387;42.690;23.328;2023-11-21T01:42:12;57.67;;;30.75;;
29984;SDS011;17387;42.690;23.328;2023-11-21T01:44:38;55.88;;;29.77;;
29984;SDS011;17387;42.690;23.328;2023-11-21T01:47:04;56.25;;;29.40;;
29984;SDS011;17387;42.690;23.328;2023-11-21T01:49:31;57.60;;;30.25;;
29984;SDS011;17387;42.690;23.328;2023-11-21T01:51:58;57.05;;;31.13;;
29984;SDS011;17387;42.690;23.328;2023-11-21T01:54:23;59.28;;;33.45;;
29984;SDS011;17387;42.690;23.328;2023-11-21T01:56:48;66.20;;;33.80;;
29984;SDS011;17387;42.690;23.328;2023-11-21T01:59:14;65.07;;;35.05;;
29984;SDS011;17387;42.690;23.328;2023-11-21T02:01:41;68.13;;;35.63;;
29984;SDS011;17387;42.690;23.328;2023-11-21T02:04:06;61.90;;;33.28;;
29984;SDS011;17387;42.690;23.328;2023-11-21T02:06:33;70.43;;;34.03;;
29984;SDS011;17387;42.690;23.328;2023-11-21T02:08:59;62.90;;;32.60;;
29984;SDS011;17387;42.690;23.328;2023-11-21T02:11:24;63.78;;;32.83;;
29984;SDS011;17387;42.690;23.328;2023-11-21T02:13:50;65.07;;;32.92;;
29984;SDS011;17387;42.690;23.328;2023-11-21T02:16:19;68.90;;;34.00;;
29984;SDS011;17387;42.690;23.328;2023-11-21T02:18:46;63.17;;;31.83;;
29984;SDS011;17387;42.690;23.328;2023-11-21T02:21:12;60.00;;;31.50;;
29984;SDS011;17387;42.690;23.328;2023-11-21T02:23:37;60.45;;;31.50;;
29984;SDS011;17387;42.690;23.328;2023-11-21T02:26:07;60.55;;;30.00;;
29984;SDS011;17387;42.690;23.328;2023-11-21T02:28:32;56.22;;;31.08;;
29984;SDS011;17387;42.690;23.328;2023-11-21T02:30:58;59.30;;;30.92;;
29984;SDS011;17387;42.690;23.328;2023-11-21T02:33:24;60.80;;;30.88;;
29984;SDS011;17387;42.690;23.328;2023-11-21T02:35:49;57.45;;;30.20;;
29984;SDS011;17387;42.690;23.328;2023-11-21T02:38:16;58.08;;;31.15;;
29984;SDS011;17387;42.690;23.328;2023-11-21T02:40:42;58.40;;;30.85;;
29984;SDS011;17387;42.690;23.328;2023-11-21T02:43:07;61.72;;;31.90;;
29984;SDS011;17387;42.690;23.328;2023-11-21T02:45:32;57.10;;;30.35;;
29984;SDS011;17387;42.690;23.328;2023-11-21T02:47:58;59.92;;;32.17;;
29984;SDS011;17387;42.690;23.328;2023-11-21T02:50:23;58.67;;;30.55;;
29984;SDS011;17387;42.690;23.328;2023-11-21T02:52:48;59.42;;;31.30;;
29984;SDS011;17387;42.690;23.328;2023-11-21T02:55:14;60.80;;;32.08;;
29984;SDS011;17387;42.690;23.328;2023-11-21T02:57:39;57.40;;;31.42;;
29984;SDS011;17387;42.690;23.328;2023-11-21T03:00:04;60.22;;;31.73;;
29984;SDS011;17387;42.690;23.328;2023-11-21T03:02:32;65.68;;;30.27;;
29984;SDS011;17387;42.690;23.328;2023-11-21T03:04:58;57.25;;;31.27;;
29984;SDS011;17387;42.690;23.328;2023-11-21T03:07:23;58.95;;;30.73;;
29984;SDS011;17387;42.690;23.328;2023-11-21T03:09:48;57.45;;;30.70;;
29984;SDS011;17387;42.690;23.328;2023-11-21T03:12:13;57.63;;;30.65;;
29984;SDS011;17387;42.690;23.328;2023-11-21T03:14:39;57.97;;;31.20;;
29984;SDS011;17387;42.690;23.328;2023-11-21T03:17:05;61.15;;;31.33;;
29984;SDS011;17387;42.690;23.328;2023-11-21T03:19:30;61.85;;;30.50;;
29984;SDS011;17387;42.690;23.328;2023-11-21T03:21:55;57.08;;;30.90;;
29984;SDS011;17387;42.690;23.328;2023-11-21T03:24:21;54.92;;;28.48;;
29984;SDS011;17387;42.690;23.328;2023-11-21T03:26:47;57.72;;;28.52;;
29984;SDS011;17387;42.690;23.328;2023-11-21T03:29:12;49.13;;;26.67;;
29984;SDS011;17387;42.690;23.328;2023-11-21T03:31:38;52.83;;;25.75;;
29984;SDS011;17387;42.690;23.328;2023-11-21T03:34:04;45.97;;;24.27;;
29984;SDS011;17387;42.690;23.328;2023-11-21T03:36:29;42.63;;;23.23;;
29984;SDS011;17387;42.690;23.328;2023-11-21T03:38:54;44.65;;;23.35;;
29984;SDS011;17387;42.690;23.328;2023-11-21T03:41:20;43.40;;;23.60;;
29984;SDS011;17387;42.690;23.328;2023-11-21T03:43:45;41.00;;;22.90;;
29984;SDS011;17387;42.690;23.328;2023-11-21T03:46:11;45.10;;;23.27;;
29984;SDS011;17387;42.690;23.328;2023-11-21T03:48:37;54.65;;;25.08;;
29984;SDS011;17387;42.690;23.328;2023-11-21T03:51:02;50.63;;;26.13;;
29984;SDS011;17387;42.690;23.328;2023-11-21T03:53:28;50.33;;;26.52;;
29984;SDS011;17387;42.690;23.328;2023-11-21T03:55:53;49.22;;;24.20;;
29984;SDS011;17387;42.690;23.328;2023-11-21T03:58:19;46.33;;;25.55;;
29984;SDS011;17387;42.690;23.328;2023-11-21T04:00:44;50.58;;;25.42;;
29984;SDS011;17387;42.690;23.328;2023-11-21T04:03:09;46.47;;;24.77;;
29984;SDS011;17387;42.690;23.328;2023-11-21T04:05:34;47.50;;;24.35;;
29984;SDS011;17387;42.690;23.328;2023-11-21T04:08:00;50.00;;;26.30;;
29984;SDS011;17387;42.690;23.328;2023-11-21T04:10:26;49.85;;;26.13;;
29984;SDS011;17387;42.690;23.328;2023-11-21T04:12:51;48.97;;;27.75;;
29984;SDS011;17387;42.690;23.328;2023-11-21T04:15:16;55.90;;;28.08;;
29984;SDS011;17387;42.690;23.328;2023-11-21T04:17:42;55.35;;;29.13;;
29984;SDS011;17387;42.690;23.328;2023-11-21T04:20:08;54.97;;;29.88;;
29984;SDS011;17387;42.690;23.328;2023-11-21T04:22:38;53.22;;;30.00;;
29984;SDS011;17387;42.690;23.328;2023-11-21T04:25:06;53.20;;;29.55;;
29984;SDS011;17387;42.690;23.328;2023-11-21T04:27:31;57.35;;;29.85;;
29984;SDS011;17387;42.690;23.328;2023-11-21T04:29:57;54.22;;;29.75;;
29984;SDS011;17387;42.690;23.328;2023-11-21T04:32:22;55.72;;;28.63;;
29984;SDS011;17387;42.690;23.328;2023-11-21T04:34:47;51.60;;;27.98;;
29984;SDS011;17387;42.690;23.328;2023-11-21T04:37:13;48.85;;;25.58;;
29984;SDS011;17387;42.690;23.328;2023-11-21T04:39:38;43.38;;;24.02;;
29984;SDS011;17387;42.690;23.328;2023-11-21T04:42:03;43.17;;;24.55;;
29984;SDS011;17387;42.690;23.328;2023-11-21T04:44:28;42.58;;;23.45;;
29984;SDS011;17387;42.690;23.328;2023-11-21T04:46:54;47.05;;;24.25;;
29984;SDS011;17387;42.690;23.328;2023-11-21T04:49:19;43.95;;;24.63;;
29984;SDS011;17387;42.690;23.328;2023-11-21T04:51:44;48.53;;;24.95;;
29984;SDS011;17387;42.690;23.328;2023-11-21T04:54:09;45.65;;;24.23;;
29984;SDS011;17387;42.690;23.328;2023-11-21T04:56:35;45.70;;;24.00;;
29984;SDS011;17387;42.690;23.328;2023-11-21T04:59:00;48.70;;;25.45;;
29984;SDS011;17387;42.690;23.328;2023-11-21T05:01:26;42.17;;;23.65;;
29984;SDS011;17387;42.690;23.328;2023-11-21T05:03:51;42.13;;;23.70;;
29984;SDS011;17387;42.690;23.328;2023-11-21T05:06:17;42.45;;;23.13;;
29984;SDS011;17387;42.690;23.328;2023-11-21T05:08:42;40.50;;;22.63;;
29984;SDS011;17387;42.690;23.328;2023-11-21T05:11:08;40.28;;;22.65;;
29984;SDS011;17387;42.690;23.328;2023-11-21T05:13:35;48.80;;;23.67;;
29984;SDS011;17387;42.690;23.328;2023-11-21T05:16:00;36.20;;;21.65;;
29984;SDS011;17387;42.690;23.328;2023-11-21T05:18:29;40.85;;;23.02;;
29984;SDS011;17387;42.690;23.328;2023-11-21T05:20:55;41.25;;;24.23;;
29984;SDS011;17387;42.690;23.328;2023-11-21T05:23:20;47.40;;;25.27;;
29984;SDS011;17387;42.690;23.328;2023-11-21T05:25:45;45.03;;;24.85;;
29984;SDS011;17387;42.690;23.328;2023-11-21T05:28:14;45.88;;;24.55;;
29984;SDS011;17387;42.690;23.328;2023-11-21T05:30:39;49.40;;;25.30;;
29984;SDS011;17387;42.690;23.328;2023-11-21T05:33:05;45.45;;;24.70;;
29984;SDS011;17387;42.690;23.328;2023-11-21T05:35:30;40.95;;;23.08;;
29984;SDS011;17387;42.690;23.328;2023-11-21T05:37:56;47.08;;;24.17;;
29984;SDS011;17387;42.690;23.328;2023-11-21T05:40:21;40.47;;;21.58;;
29984;SDS011;17387;42.690;23.328;2023-11-21T05:42:47;46.90;;;22.98;;
29984;SDS011;17387;42.690;23.328;2023-11-21T05:45:13;47.35;;;24.65;;
29984;SDS011;17387;42.690;23.328;2023-11-21T05:47:42;45.08;;;25.25;;
29984;SDS011;17387;42.690;23.328;2023-11-21T05:50:08;49.50;;;25.90;;
29984;SDS011;17387;42.690;23.328;2023-11-21T05:52:40;50.95;;;26.50;;
29984;SDS011;17387;42.690;23.328;2023-11-21T05:55:06;56.63;;;30.65;;
29984;SDS011;17387;42.690;23.328;2023-11-21T05:57:37;62.83;;;32.95;;
29984;SDS011;17387;42.690;23.328;2023-11-21T06:02:35;67.07;;;32.65;;
29984;SDS011;17387;42.690;23.328;2023-11-21T06:05:00;69.68;;;36.00;;
29984;SDS011;17387;42.690;23.328;2023-11-21T06:07:26;62.65;;;34.25;;
29984;SDS011;17387;42.690;23.328;2023-11-21T06:09:51;68.53;;;33.42;;
29984;SDS011;17387;42.690;23.328;2023-11-21T06:12:37;55.58;;;30.50;;
29984;SDS011;17387;42.690;23.328;2023-11-21T06:15:05;59.88;;;29.98;;
29984;SDS011;17387;42.690;23.328;2023-11-21T06:17:32;57.47;;;29.10;;
29984;SDS011;17387;42.690;23.328;2023-11-21T06:19:57;55.30;;;28.98;;
29984;SDS011;17387;42.690;23.328;2023-11-21T06:22:22;49.70;;;29.27;;
29984;SDS011;17387;42.690;23.328;2023-11-21T06:24:48;55.45;;;29.15;;
29984;SDS011;17387;42.690;23.328;2023-11-21T06:27:13;54.35;;;29.27;;
29984;SDS011;17387;42.690;23.328;2023-11-21T06:29:38;54.60;;;30.17;;
29984;SDS011;17387;42.690;23.328;2023-11-21T06:32:04;63.88;;;32.17;;
29984;SDS011;17387;42.690;23.328;2023-11-21T06:34:30;57.80;;;31.08;;
29984;SDS011;17387;42.690;23.328;2023-11-21T06:36:55;61.88;;;33.58;;
29984;SDS011;17387;42.690;23.328;2023-11-21T06:39:21;68.53;;;32.95;;
29984;SDS011;17387;42.690;23.328;2023-11-21T06:41:48;62.55;;;33.55;;
29984;SDS011;17387;42.690;23.328;2023-11-21T06:44:13;55.95;;;31.00;;
29984;SDS011;17387;42.690;23.328;2023-11-21T06:46:39;63.50;;;33.60;;
29984;SDS011;17387;42.690;23.328;2023-11-21T06:49:07;67.72;;;33.10;;
29984;SDS011;17387;42.690;23.328;2023-11-21T06:51:32;59.80;;;31.35;;
29984;SDS011;17387;42.690;23.328;2023-11-21T06:53:57;64.72;;;34.15;;
29984;SDS011;17387;42.690;23.328;2023-11-21T06:56:23;52.80;;;30.63;;
29984;SDS011;17387;42.690;23.328;2023-11-21T06:58:48;59.80;;;31.20;;
29984;SDS011;17387;42.690;23.328;2023-11-21T07:01:14;58.28;;;30.27;;
29984;SDS011;17387;42.690;23.328;2023-11-21T07:03:40;60.47;;;30.88;;
29984;SDS011;17387;42.690;23.328;2023-11-21T07:06:06;56.28;;;29.45;;
29984;SDS011;17387;42.690;23.328;2023-11-21T07:08:32;55.65;;;29.58;;
29984;SDS011;17387;42.690;23.328;2023-11-21T07:10:57;53.70;;;29.20;;
29984;SDS011;17387;42.690;23.328;2023-11-21T07:13:23;49.95;;;27.20;;
29984;SDS011;17387;42.690;23.328;2023-11-21T07:15:48;44.35;;;22.98;;
29984;SDS011;17387;42.690;23.328;2023-11-21T07:18:14;40.55;;;22.73;;
29984;SDS011;17387;42.690;23.328;2023-11-21T07:20:39;37.40;;;19.67;;
29984;SDS011;17387;42.690;23.328;2023-11-21T07:23:04;37.80;;;20.23;;
29984;SDS011;17387;42.690;23.328;2023-11-21T07:25:30;40.17;;;19.67;;
29984;SDS011;17387;42.690;23.328;2023-11-21T07:27:56;36.28;;;20.90;;
29984;SDS011;17387;42.690;23.328;2023-11-21T07:30:22;38.05;;;19.27;;
29984;SDS011;17387;42.690;23.328;2023-11-21T07:32:47;34.95;;;20.15;;
29984;SDS011;17387;42.690;23.328;2023-11-21T07:35:13;32.38;;;18.88;;
29984;SDS011;17387;42.690;23.328;2023-11-21T07:37:38;35.22;;;18.40;;
29984;SDS011;17387;42.690;23.328;2023-11-21T07:40:03;33.38;;;17.58;;
29984;SDS011;17387;42.690;23.328;2023-11-21T07:42:29;39.05;;;19.52;;
29984;SDS011;17387;42.690;23.328;2023-11-21T07:44:54;35.13;;;20.40;;
29984;SDS011;17387;42.690;23.328;2023-11-21T07:47:20;37.35;;;18.52;;
29984;SDS011;17387;42.690;23.328;2023-11-21T07:49:45;39.13;;;20.38;;
29984;SDS011;17387;42.690;23.328;2023-11-21T07:52:11;39.88;;;20.00;;
29984;SDS011;17387;42.690;23.328;2023-11-21T07:54:37;33.63;;;19.27;;
29984;SDS011;17387;42.690;23.328;2023-11-21T07:57:03;45.60;;;20.77;;
29984;SDS011;17387;42.690;23.328;2023-11-21T07:59:29;36.58;;;21.25;;
29984;SDS011;17387;42.690;23.328;2023-11-21T08:01:54;38.83;;;21.45;;
29984;SDS011;17387;42.690;23.328;2023-11-21T08:04:20;42.38;;;21.08;;
29984;SDS011;17387;42.690;23.328;2023-11-21T08:06:45;39.88;;;19.83;;
29984;SDS011;17387;42.690;23.328;2023-11-21T08:09:10;38.28;;;20.20;;
29984;SDS011;17387;42.690;23.328;2023-11-21T08:11:37;45.17;;;20.90;;
29984;SDS011;17387;42.690;23.328;2023-11-21T08:14:04;39.17;;;18.17;;
29984;SDS011;17387;42.690;23.328;2023-11-21T08:16:30;32.40;;;18.10;;
29984;SDS011;17387;42.690;23.328;2023-11-21T08:18:55;30.45;;;17.25;;
29984;SDS011;17387;42.690;23.328;2023-11-21T08:21:20;35.63;;;18.08;;
29984;SDS011;17387;42.690;23.328;2023-11-21T08:23:46;37.25;;;18.88;;
29984;SDS011;17387;42.690;23.328;2023-11-21T08:26:12;39.30;;;19.00;;
29984;SDS011;17387;42.690;23.328;2023-11-21T08:28:38;34.33;;;17.88;;
29984;SDS011;17387;42.690;23.328;2023-11-21T08:31:03;35.38;;;16.70;;
29984;SDS011;17387;42.690;23.328;2023-11-21T08:33:29;32.67;;;19.08;;
29984;SDS011;17387;42.690;23.328;2023-11-21T08:35:54;36.33;;;19.98;;
29984;SDS011;17387;42.690;23.328;2023-11-21T08:38:20;45.22;;;20.70;;
29984;SDS011;17387;42.690;23.328;2023-11-21T08:40:45;63.38;;;29.52;;
29984;SDS011;17387;42.690;23.328;2023-11-21T08:43:10;52.05;;;28.00;;
29984;SDS011;17387;42.690;23.328;2023-11-21T08:45:37;64.15;;;30.25;;
29984;SDS011;17387;42.690;23.328;2023-11-21T08:48:02;57.15;;;27.67;;
29984;SDS011;17387;42.690;23.328;2023-11-21T08:50:28;57.10;;;31.85;;
29984;SDS011;17387;42.690;23.328;2023-11-21T08:52:53;54.92;;;30.98;;
29984;SDS011;17387;42.690;23.328;2023-11-21T08:55:18;50.70;;;25.83;;
29984;SDS011;17387;42.690;23.328;2023-11-21T08:57:45;55.03;;;28.70;;
29984;SDS011;17387;42.690;23.328;2023-11-21T09:00:11;62.72;;;30.52;;
29984;SDS011;17387;42.690;23.328;2023-11-21T09:02:38;60.38;;;30.48;;
29984;SDS011;17387;42.690;23.328;2023-11-21T09:05:04;58.08;;;30.23;;
29984;SDS011;17387;42.690;23.328;2023-11-21T09:07:29;53.13;;;30.42;;
29984;SDS011;17387;42.690;23.328;2023-11-21T09:09:55;66.60;;;31.60;;
29984;SDS011;17387;42.690;23.328;2023-11-21T09:12:20;62.20;;;32.60;;
29984;SDS011;17387;42.690;23.328;2023-11-21T09:14:46;50.17;;;29.98;;
29984;SDS011;17387;42.690;23.328;2023-11-21T09:17:11;61.00;;;31.05;;
29984;SDS011;17387;42.690;23.328;2023-11-21T09:19:39;54.63;;;29.45;;
29984;SDS011;17387;42.690;23.328;2023-11-21T09:22:05;53.53;;;29.70;;
29984;SDS011;17387;42.690;23.328;2023-11-21T09:24:31;46.30;;;27.63;;
29984;SDS011;17387;42.690;23.328;2023-11-21T09:26:57;57.47;;;32.00;;
29984;SDS011;17387;42.690;23.328;2023-11-21T09:29:22;63.13;;;34.15;;
29984;SDS011;17387;42.690;23.328;2023-11-21T09:31:47;71.13;;;37.33;;
29984;SDS011;17387;42.690;23.328;2023-11-21T09:34:13;69.78;;;38.30;;
29984;SDS011;17387;42.690;23.328;2023-11-21T09:36:40;65.80;;;36.05;;
29984;SDS011;17387;42.690;23.328;2023-11-21T09:39:06;66.63;;;36.97;;
29984;SDS011;17387;42.690;23.328;2023-11-21T09:41:37;71.40;;;39.03;;
29984;SDS011;17387;42.690;23.328;2023-11-21T09:44:05;69.20;;;38.63;;
29984;SDS011;17387;42.690;23.328;2023-11-21T09:46:36;81.87;;;41.20;;
29984;SDS011;17387;42.690;23.328;2023-11-21T09:49:04;72.00;;;38.42;;
29984;SDS011;17387;42.690;23.328;2023-11-21T09:51:33;72.30;;;39.10;;
29984;SDS011;17387;42.690;23.328;2023-11-21T09:54:01;72.43;;;39.00;;
29984;SDS011;17387;42.690;23.328;2023-11-21T09:56:32;77.90;;;41.70;;
29984;SDS011;17387;42.690;23.328;2023-11-21T09:58:57;82.60;;;42.40;;
29984;SDS011;17387;42.690;23.328;2023-11-21T10:01:23;77.60;;;39.42;;
29984;SDS011;17387;42.690;23.328;2023-11-21T10:03:50;67.35;;;36.70;;
29984;SDS011;17387;42.690;23.328;2023-11-21T10:06:15;67.03;;;37.47;;
29984;SDS011;17387;42.690;23.328;2023-11-21T10:08:41;69.63;;;38.00;;
29984;SDS011;17387;42.690;23.328;2023-11-21T10:11:07;106.53;;;49.35;;
29984;SDS011;17387;42.690;23.328;2023-11-21T10:13:36;72.53;;;39.20;;
29984;SDS011;17387;42.690;23.328;2023-11-21T10:16:02;74.40;;;40.90;;
29984;SDS011;17387;42.690;23.328;2023-11-21T10:18:30;66.22;;;39.08;;
29984;SDS011;17387;42.690;23.328;2023-11-21T10:20:59;63.70;;;37.20;;
29984;SDS011;17387;42.690;23.328;2023-11-21T10:23:24;61.90;;;34.50;;
29984;SDS011;17387;42.690;23.328;2023-11-21T10:25:50;54.47;;;34.20;;
29984;SDS011;17387;42.690;23.328;2023-11-21T10:28:16;49.22;;;27.25;;
29984;SDS011;17387;42.690;23.328;2023-11-21T10:30:42;59.85;;;31.67;;
29984;SDS011;17387;42.690;23.328;2023-11-21T10:33:07;53.13;;;27.17;;
29984;SDS011;17387;42.690;23.328;2023-11-21T10:35:42;56.05;;;32.90;;
29984;SDS011;17387;42.690;23.328;2023-11-21T10:38:11;64.25;;;34.53;;
29984;SDS011;17387;42.690;23.328;2023-11-21T10:40:39;49.95;;;29.30;;
29984;SDS011;17387;42.690;23.328;2023-11-21T10:43:08;49.15;;;28.45;;
29984;SDS011;17387;42.690;23.328;2023-11-21T10:45:37;42.75;;;26.75;;
29984;SDS011;17387;42.690;23.328;2023-11-21T10:48:06;50.47;;;27.23;;
29984;SDS011;17387;42.690;23.328;2023-11-21T10:50:42;59.47;;;33.38;;
29984;SDS011;17387;42.690;23.328;2023-11-21T10:53:08;58.15;;;33.60;;
29984;SDS011;17387;42.690;23.328;2023-11-21T10:55:33;48.85;;;29.70;;
29984;SDS011;17387;42.690;23.328;2023-11-21T10:58:00;65.15;;;33.92;;
29984;SDS011;17387;42.690;23.328;2023-11-21T11:00:27;52.13;;;31.27;;
29984;SDS011;17387;42.690;23.328;2023-11-21T11:02:53;49.35;;;27.85;;
29984;SDS011;17387;42.690;23.328;2023-11-21T11:05:22;54.78;;;30.40;;
29984;SDS011;17387;42.690;23.328;2023-11-21T11:07:50;54.05;;;30.02;;
29984;SDS011;17387;42.690;23.328;2023-11-21T11:10:19;51.42;;;27.58;;
29984;SDS011;17387;42.690;23.328;2023-11-21T11:12:47;62.50;;;31.35;;
29984;SDS011;17387;42.690;23.328;2023-11-21T11:15:13;41.08;;;22.75;;
29984;SDS011;17387;42.690;23.328;2023-11-21T11:17:39;31.17;;;18.10;;
29984;SDS011;17387;42.690;23.328;2023-11-21T11:20:05;42.58;;;25.83;;
29984;SDS011;17387;42.690;23.328;2023-11-21T11:22:50;61.08;;;28.42;;
29984;SDS011;17387;42.690;23.328;2023-11-21T11:35:52;45.63;;;26.60;;
29984;SDS011;17387;42.690;23.328;2023-11-21T11:38:21;44.60;;;26.10;;
29984;SDS011;17387;42.690;23.328;2023-11-21T11:40:46;44.30;;;23.88;;
29984;SDS011;17387;42.690;23.328;2023-11-21T11:43:12;42.00;;;23.77;;
29984;SDS011;17387;42.690;23.328;2023-11-21T11:45:37;37.65;;;21.70;;
29984;SDS011;17387;42.690;23.328;2023-11-21T11:48:10;37.33;;;22.52;;
29984;SDS011;17387;42.690;23.328;2023-11-21T11:50:41;39.10;;;23.05;;
29984;SDS011;17387;42.690;23.328;2023-11-21T11:53:13;40.30;;;21.42;;
29984;SDS011;17387;42.690;23.328;2023-11-21T11:55:39;42.58;;;22.80;;
29984;SDS011;17387;42.690;23.328;2023-11-21T11:58:05;43.25;;;23.88;;
29984;SDS011;17387;42.690;23.328;2023-11-21T12:00:34;47.05;;;23.75;;
29984;SDS011;17387;42.690;23.328;2023-11-21T12:05:33;36.13;;;21.40;;
29984;SDS011;17387;42.690;23.328;2023-11-21T12:08:04;45.50;;;22.73;;
29984;SDS011;17387;42.690;23.328;2023-11-21T12:10:30;42.45;;;23.08;;
29984;SDS011;17387;42.690;23.328;2023-11-21T12:12:57;38.10;;;22.45;;
29984;SDS011;17387;42.690;23.328;2023-11-21T12:15:23;43.08;;;23.58;;
29984;SDS011;17387;42.690;23.328;2023-11-21T12:17:49;45.45;;;24.55;;
29984;SDS011;17387;42.690;23.328;2023-11-21T12:20:15;47.72;;;26.58;;
29984;SDS011;17387;42.690;23.328;2023-11-21T12:22:45;49.50;;;27.60;;
29984;SDS011;17387;42.690;23.328;2023-11-21T12:25:13;52.17;;;29.97;;
29984;SDS011;17387;42.690;23.328;2023-11-21T12:27:41;54.75;;;31.58;;
29984;SDS011;17387;42.690;23.328;2023-11-21T12:30:07;57.47;;;31.15;;
29984;SDS011;17387;42.690;23.328;2023-11-21T12:35:04;58.28;;;29.92;;
29984;SDS011;17387;42.690;23.328;2023-11-21T12:37:31;51.72;;;27.00;;
29984;SDS011;17387;42.690;23.328;2023-11-21T12:39:57;48.78;;;26.33;;
29984;SDS011;17387;42.690;23.328;2023-11-21T12:42:23;51.67;;;27.08;;
29984;SDS011;17387;42.690;23.328;2023-11-21T12:44:48;49.70;;;28.25;;
29984;SDS011;17387;42.690;23.328;2023-11-21T12:47:16;57.58;;;29.10;;
29984;SDS011;17387;42.690;23.328;2023-11-21T12:49:41;57.72;;;28.80;;
29984;SDS011;17387;42.690;23.328;2023-11-21T12:52:09;42.05;;;23.70;;
29984;SDS011;17387;42.690;23.328;2023-11-21T12:54:34;42.10;;;24.08;;
29984;SDS011;17387;42.690;23.328;2023-11-21T12:57:00;43.10;;;22.73;;
29984;SDS011;17387;42.690;23.328;2023-11-21T12:59:26;41.42;;;22.65;;
29984;SDS011;17387;42.690;23.328;2023-11-21T13:01:53;44.72;;;25.17;;
29984;SDS011;17387;42.690;23.328;2023-11-21T13:04:29;39.80;;;23.65;;
29984;SDS011;17387;42.690;23.328;2023-11-21T13:06:54;47.35;;;24.70;;
29984;SDS011;17387;42.690;23.328;2023-11-21T13:09:20;42.30;;;22.85;;
29984;SDS011;17387;42.690;23.328;2023-11-21T13:11:46;37.58;;;22.27;;
29984;SDS011;17387;42.690;23.328;2023-11-21T13:14:11;42.08;;;24.75;;
29984;SDS011;17387;42.690;23.328;2023-11-21T13:16:37;34.58;;;22.17;;
29984;SDS011;17387;42.690;23.328;2023-11-21T13:19:04;42.35;;;24.27;;
29984;SDS011;17387;42.690;23.328;2023-11-21T13:21:29;43.90;;;24.88;;
29984;SDS011;17387;42.690;23.328;2023-11-21T13:23:54;42.13;;;23.60;;
29984;SDS011;17387;42.690;23.328;2023-11-21T13:26:21;39.90;;;22.35;;
29984;SDS011;17387;42.690;23.328;2023-11-21T13:28:48;39.13;;;23.98;;
29984;SDS011;17387;42.690;23.328;2023-11-21T13:31:13;43.47;;;24.67;;
29984;SDS011;17387;42.690;23.328;2023-11-21T13:33:51;41.95;;;22.88;;
29984;SDS011;17387;42.690;23.328;2023-11-21T13:36:21;46.40;;;27.08;;
29984;SDS011;17387;42.690;23.328;2023-11-21T13:38:49;62.83;;;29.75;;
29984;SDS011;17387;42.690;23.328;2023-11-21T13:41:14;39.30;;;24.25;;
29984;SDS011;17387;42.690;23.328;2023-11-21T13:43:40;36.55;;;21.90;;
29984;SDS011;17387;42.690;23.328;2023-11-21T13:46:08;50.63;;;29.27;;
29984;SDS011;17387;42.690;23.328;2023-11-21T13:48:41;43.22;;;25.20;;
29984;SDS011;17387;42.690;23.328;2023-11-21T13:51:15;55.47;;;27.45;;
29984;SDS011;17387;42.690;23.328;2023-11-21T13:53:48;60.33;;;27.80;;
29984;SDS011;17387;42.690;23.328;2023-11-21T13:56:16;60.92;;;31.48;;
29984;SDS011;17387;42.690;23.328;2023-11-21T13:58:45;44.83;;;26.13;;
29984;SDS011;17387;42.690;23.328;2023-11-21T14:01:11;54.58;;;30.75;;
29984;SDS011;17387;42.690;23.328;2023-11-21T14:03:48;61.67;;;34.30;;
29984;SDS011;17387;42.690;23.328;2023-11-21T14:06:19;64.88;;;32.92;;
29984;SDS011;17387;42.690;23.328;2023-11-21T14:08:50;45.83;;;28.58;;
29984;SDS011;17387;42.690;23.328;2023-11-21T14:11:15;56.58;;;30.23;;
29984;SDS011;17387;42.690;23.328;2023-11-21T14:13:43;49.22;;;28.75;;
29984;SDS011;17387;42.690;23.328;2023-11-21T14:16:12;50.28;;;29.92;;
29984;SDS011;17387;42.690;23.328;2023-11-21T14:18:39;47.10;;;27.85;;
29984;SDS011;17387;42.690;23.328;2023-11-21T14:21:15;53.10;;;27.73;;